Latest Weather Observations for Braidwood

IDN60901

Issued at 9:21 pm EDT Monday 26 January 2015 (issued every 10 minutes, with the page automatically refreshed every 10 minutes)

About weather observations | Map of Canberra area stations | Latest observations for Canberra area | Other Formats
Station Details ID: 069132 Name: BRAIDWOOD RACECOURSE AWS Lat: -35.43 Lon: 149.78 Height: 665.2 m
Data from the previous 72 hours. | See also: Recent months at Braidwood
Date/Time
EDT
Tmp

°C
App
Tmp
°C
Dew
Point
°C
Rel
Hum
%
Delta-T

°C
Wind Press
QNH
hPa
Press
MSL
hPa
Rain
since
9 am
mm
Dir
 
Spd
km/h
Gust
km/h
Spd
kts
Gust
kts
26/09:00pm 11.6 10.0 10.3 92 0.7 S 9 13 5 7 1017.6 1014.7 0.0
26/08:30pm 11.6 10.0 10.3 92 0.7 S 9 13 5 7 1017.2 1014.4 0.0
26/08:00pm 11.8 9.7 9.9 88 1.0 SSE 11 17 6 9 1017.0 1014.1 0.0
26/07:30pm 11.9 9.3 9.5 85 1.3 SSE 13 17 7 9 1016.9 1014.0 0.0
26/07:00pm 12.0 9.8 9.4 84 1.4 SE 11 19 6 10 1016.6 1013.7 0.0
26/06:30pm 12.2 9.9 9.0 81 1.7 SE 11 17 6 9 1016.4 1013.5 0.0
26/06:00pm 12.5 9.8 9.1 80 1.8 ESE 13 17 7 9 1016.3 1013.4 0.0
26/05:30pm 12.8 10.6 9.4 80 1.8 SE 11 17 6 9 1016.1 1013.2 0.0
26/05:00pm 13.1 10.6 9.7 80 1.8 ESE 13 19 7 10 1015.9 1012.9 0.0
26/04:30pm 13.1 10.1 9.2 77 2.0 ESE 15 20 8 11 1016.1 1013.2 0.0
26/04:00pm 13.1 9.7 9.0 76 2.1 ESE 17 20 9 11 1016.1 1013.2 0.0
26/03:30pm 13.5 10.9 9.4 76 2.2 ESE 13 22 7 12 1016.0 1013.1 0.0
26/03:00pm 12.9 10.5 8.8 76 2.1 SE 11 19 6 10 1016.2 1013.3 0.0
26/02:30pm 13.1 10.2 9.5 79 1.9 ESE 15 19 8 10 1016.2 1013.3 0.0
26/02:00pm 13.1 10.5 9.4 78 1.9 SE 13 19 7 10 1016.2 1013.3 0.0
26/01:30pm 12.9 9.9 9.4 79 1.8 SE 15 20 8 11 1016.4 1013.5 0.0
26/01:00pm 13.3 10.7 9.5 78 2.0 SE 13 19 7 10 1016.2 1013.3 0.0
26/12:30pm 13.8 11.3 9.6 76 2.2 ESE 13 17 7 9 1016.3 1013.4 0.0
26/12:00pm 13.4 11.2 9.5 77 2.1 SE 11 19 6 10 1016.4 1013.5 0.0
26/11:30am 13.0 10.3 8.9 76 2.1 SE 13 19 7 10 1016.4 1013.5 0.0
26/11:00am 13.0 10.8 9.3 78 1.9 SE 11 15 6 8 1016.4 1013.5 0.0
26/10:30am 12.8 10.6 9.3 79 1.8 SE 11 19 6 10 1016.4 1013.5 0.0
26/10:00am 12.7 9.8 9.5 81 1.7 ESE 15 19 8 10 1016.2 1013.3 0.0
26/09:30am 12.3 9.5 10.0 86 1.2 ESE 15 19 8 10 1016.1 1013.2 0.0
26/09:00am 12.2 9.9 10.3 88 1.0 SE 13 17 7 9 1016.2 1013.3 0.0
26/08:30am 12.0 10.4 10.1 88 1.0 SE 9 13 5 7 1016.0 1013.1 0.0
26/08:00am 12.1 9.7 10.2 88 1.0 ESE 13 17 7 9 1015.6 1012.7 0.0
26/07:30am 12.0 10.0 10.2 89 1.0 SE 11 15 6 8 1015.1 1012.2 0.0
26/07:00am 11.8 9.8 10.0 89 1.0 SE 11 15 6 8 1015.0 1012.1 0.0
26/06:30am 11.8 10.1 10.0 89 1.0 SE 9 13 5 7 1014.6 1011.7 0.0
26/06:00am 11.8 10.1 10.0 89 1.0 SE 9 13 5 7 1014.3 1011.3 0.0
26/05:30am 11.8 10.1 9.9 88 1.0 SE 9 13 5 7 1013.8 1010.9 0.0
26/05:00am 11.9 9.9 10.1 89 1.0 SE 11 17 6 9 1013.6 1010.7 0.0
26/04:30am 11.9 9.9 10.1 89 1.0 SE 11 15 6 8 1013.4 1010.5 0.0
26/04:00am 12.0 9.3 10.2 89 1.0 SE 15 22 8 12 1013.4 1010.5 0.0
26/03:30am 12.2 10.8 10.8 91 0.8 SE 9 13 5 7 1013.3 1010.4 0.0
26/03:00am 12.4 9.8 10.8 90 0.9 ESE 15 19 8 10 1013.2 1010.2 0.0
26/02:30am 12.5 10.4 11.1 91 0.8 SE 13 20 7 11 1013.0 1010.0 0.0
26/02:00am 12.5 9.6 11.1 91 0.8 SE 17 24 9 13 1012.9 1009.9 0.0
26/01:30am 12.8 9.7 11.5 92 0.7 SE 19 26 10 14 1012.9 1009.9 0.0
26/01:00am 12.8 9.4 11.4 91 0.8 ESE 20 28 11 15 1012.8 1009.8 0.0
26/12:30am 13.1 9.8 11.7 91 0.8 ESE 20 32 11 17 1012.9 1009.9 0.0
26/12:00am 13.4 10.8 12.1 92 0.7 ESE 17 22 9 12 1012.9 1009.9 0.0
 
Date/Time
EDT
Tmp

°C
App
Tmp
°C
Dew
Point
°C
Rel
Hum
%
Delta-T

°C
Wind Press
QNH
hPa
Press
MSL
hPa
Rain
since
9 am
mm
Dir
 
Spd
km/h
Gust
km/h
Spd
kts
Gust
kts
25/11:30pm 13.4 10.3 12.1 92 0.7 ESE 20 30 11 16 1012.7 1009.7 0.0
25/11:00pm 13.7 10.8 12.3 91 0.8 ESE 19 24 10 13 1012.6 1009.6 0.0
25/10:30pm 14.0 11.6 12.6 91 0.8 ESE 17 24 9 13 1012.4 1009.5 0.0
25/10:00pm 14.1 12.2 13.0 93 0.6 ESE 15 20 8 11 1012.1 1009.2 0.0
25/09:30pm 14.3 13.2 13.0 92 0.7 ESE 11 15 6 8 1011.8 1008.8 0.0
25/09:00pm 14.3 12.4 13.0 92 0.7 ESE 15 20 8 11 1011.5 1008.5 0.0
25/08:30pm 14.5 13.8 13.2 92 0.7 SE 9 19 5 10 1010.7 1007.8 0.0
25/08:00pm 14.8 12.1 13.5 92 0.7 ESE 20 32 11 17 1010.2 1007.2 0.0
25/07:30pm 15.4 12.9 14.1 92 0.8 ESE 20 28 11 15 1009.6 1006.6 0.0
25/07:00pm 15.9 12.6 13.9 88 1.2 ESE 24 33 13 18 1008.9 1005.9 0.0
25/06:30pm 17.0 14.1 14.1 83 1.7 ESE 22 30 12 16 1008.3 1005.3 0.0
25/06:00pm 20.0 18.5 13.2 65 4.0 SSE 13 22 7 12 1007.4 1004.4 0.0
25/05:55pm 20.8 17.8 12.0 57 5.1 WSW 19 32 10 17 1007.3 1004.3 0.0
25/05:30pm 26.2 20.4 6.3 28 10.7 WNW 26 35 14 19 1006.6 1003.6 0.0
25/05:00pm 26.6 22.0 8.1 31 10.3 NW 22 32 12 17 1006.4 1003.3 0.0
25/04:30pm 27.0 21.2 8.0 30 10.5 WNW 28 39 15 21 1006.2 1003.1 0.0
25/04:00pm 27.5 23.1 8.9 31 10.5 WNW 22 35 12 19 1005.9 1002.9 0.0
25/03:30pm 27.7 22.2 9.0 31 10.6 W 28 39 15 21 1005.7 1002.7 0.0
25/03:00pm 27.6 20.9 8.0 29 11.0 WNW 33 50 18 27 1005.7 1002.7 0.0
25/02:50pm 27.7 21.7 7.0 27 11.3 WNW 28 50 15 27 1005.4 1002.4 0.0
25/02:30pm 27.6 23.6 9.0 31 10.5 WNW 20 33 11 18 1005.6 1002.6 0.0
25/02:00pm 27.3 23.3 9.2 32 10.3 WNW 20 33 11 18 1005.3 1002.3 0.0
25/01:30pm 26.8 21.5 11.3 38 9.1 WNW 30 46 16 25 1005.4 1002.4 0.0
25/01:29pm 26.8 21.9 11.3 38 9.1 WNW 28 46 15 25 1005.4 1002.4 0.0
25/01:00pm 25.9 22.9 14.7 50 6.9 WNW 24 39 13 21 1005.4 1002.4 0.0
25/12:30pm 25.9 23.2 15.6 53 6.4 NW 24 41 13 22 1005.3 1002.3 0.0
25/12:00pm 24.9 22.8 16.3 59 5.4 NW 22 33 12 18 1005.3 1002.3 0.0
25/11:30am 24.3 21.8 17.1 64 4.6 WNW 26 35 14 19 1005.4 1002.4 0.0
25/11:00am 24.5 23.6 17.7 66 4.4 NW 19 28 10 15 1005.5 1002.5 0.0
25/10:30am 23.8 23.8 18.0 70 3.7 NW 15 24 8 13 1005.6 1002.6 0.0
25/10:00am 22.7 21.9 17.2 71 3.5 NW 17 28 9 15 1005.4 1002.4 0.0
25/09:30am 21.8 21.2 16.7 73 3.2 NW 15 22 8 12 1005.5 1002.5 0.0
25/09:00am 21.6 20.3 16.8 74 3.0 NW 19 24 10 13 1005.8 1002.8 31.6
25/08:30am 20.8 19.3 16.8 78 2.5 NW 20 32 11 17 1005.8 1002.8 31.6
25/08:00am 19.9 18.4 16.2 79 2.3 NW 19 28 10 15 1005.5 1002.5 31.6
25/07:30am 19.4 19.3 16.1 81 2.0 NW 11 22 6 12 1005.3 1002.3 31.6
25/07:00am 19.0 18.0 15.7 81 2.0 NW 15 24 8 13 1005.0 1001.9 31.6
25/06:30am 19.0 17.3 15.7 81 2.0 WNW 19 26 10 14 1005.0 1001.9 31.6
25/06:00am 17.2 16.9 15.5 90 1.0 NW 11 17 6 9 1004.9 1001.8 31.6
25/05:30am 15.9 17.3 14.3 90 0.9 CALM 0 0 0 0 1004.7 1001.6 31.6
25/05:00am 16.6 17.8 14.8 89 1.1 NNW 2 9 1 5 1004.4 1001.4 31.6
25/04:30am 16.7 17.2 15.6 93 0.7 N 7 13 4 7 1004.7 1001.6 31.6
25/04:00am 16.0 16.9 15.0 94 0.6 N 4 9 2 5 1004.7 1001.6 31.6
25/03:30am 15.8 17.0 15.0 95 0.5 NNW 2 9 1 5 1005.1 1002.0 31.6
25/03:00am 15.2 16.6 14.4 95 0.5 CALM 0 0 0 0 1005.4 1002.4 31.6
25/02:30am 15.4 16.9 14.6 95 0.5 CALM 0 0 0 0 1005.7 1002.7 31.6
25/02:00am 15.5 17.0 14.7 95 0.5 CALM 0 0 0 0 1006.0 1003.0 31.6
25/01:30am 15.7 17.3 14.9 95 0.5 CALM 0 0 0 0 1006.3 1003.2 31.6
25/01:00am 16.2 17.9 15.2 94 0.6 CALM 0 0 0 0 1006.6 1003.6 31.6
25/12:30am 16.5 18.3 15.5 94 0.6 CALM 0 0 0 0 1006.9 1003.9 31.6
25/12:00am 16.9 18.1 15.9 94 0.6 NNW 4 6 2 3 1007.3 1004.3 31.6
 
Date/Time
EDT
Tmp

°C
App
Tmp
°C
Dew
Point
°C
Rel
Hum
%
Delta-T

°C
Wind Press
QNH
hPa
Press
MSL
hPa
Rain
since
9 am
mm
Dir
 
Spd
km/h
Gust
km/h
Spd
kts
Gust
kts
24/11:30pm 17.2 19.3 16.2 94 0.6 CALM 0 0 0 0 1007.2 1004.2 31.6
24/11:00pm 17.5 19.7 16.5 94 0.6 CALM 0 0 0 0 1007.6 1004.6 31.4
24/10:30pm 17.3 19.0 16.3 94 0.6 WNW 2 7 1 4 1008.0 1005.0 31.4
24/10:00pm 17.4 19.6 16.6 95 0.5 CALM 0 0 0 0 1008.6 1005.6 31.4
24/09:30pm 17.4 17.9 16.6 95 0.5 WNW 9 17 5 9 1009.0 1006.0 31.0
24/09:00pm 17.6 19.8 16.6 94 0.6 CALM 0 0 0 0 1009.0 1006.0 30.2
24/08:30pm 17.7 20.0 16.7 94 0.6 CALM 0 0 0 0 1009.0 1006.0 29.0
24/08:00pm 17.9 19.8 16.8 93 0.7 NNW 2 7 1 4 1009.4 1006.4 26.4
24/07:30pm 18.6 20.0 17.4 93 0.8 WNW 6 13 3 7 1009.7 1006.7 19.6
24/07:00pm 19.1 20.1 17.8 92 0.8 E 9 13 5 7 1008.5 1005.5 12.4
24/06:30pm 19.1 20.5 17.8 92 0.8 E 7 9 4 5 1007.9 1004.8 12.0
24/06:00pm 18.9 20.8 17.6 92 0.8 SSW 4 15 2 8 1007.8 1004.7 12.0
24/05:30pm 19.1 20.0 16.7 86 1.5 W 7 20 4 11 1008.3 1005.3 8.0
24/05:00pm 20.0 20.6 16.8 82 2.0 ESE 9 17 5 9 1007.0 1004.0 1.2
24/04:30pm 19.2 16.8 16.4 84 1.7 ESE 24 43 13 23 1006.7 1003.7 1.2
24/04:03pm 20.0 18.9 17.4 85 1.6 ESE 19 50 10 27 1006.9 1003.9 1.2
24/04:00pm 20.4 20.2 17.6 84 1.8 ENE 15 24 8 13 1006.7 1003.7 1.2
24/03:43pm 20.6 19.1 16.4 77 2.6 N 19 32 10 17 1005.6 1002.6 1.2
24/03:30pm 25.6 26.6 17.8 62 5.0 N 9 19 5 10 1005.8 1002.8 0.2
24/03:28pm 25.8 26.1 16.9 58 5.7 NNW 11 20 6 11 1005.8 1002.8 0.2
24/03:00pm 31.1 33.6 19.8 51 7.6 NNW 6 17 3 9 1005.7 1002.7 0.2
24/02:30pm 30.2 30.9 18.0 48 8.0 NW 11 19 6 10 1006.2 1003.1 0.2
24/02:00pm 29.7 30.8 17.2 47 8.1 N 7 13 4 7 1006.8 1003.8 0.2
24/01:30pm 29.7 30.7 17.8 48 7.8 NNW 9 17 5 9 1007.4 1004.4 0.2
24/01:00pm 29.7 31.4 18.5 51 7.4 N 7 15 4 8 1008.3 1005.3 0.2
24/12:30pm 29.4 31.4 20.0 57 6.3 NNW 9 19 5 10 1008.5 1005.5 0.2
24/12:00pm 28.8 30.3 18.9 55 6.6 NNW 9 20 5 11 1008.8 1005.8 0.2
24/11:30am 27.9 29.9 19.1 58 5.8 NNW 7 17 4 9 1009.0 1006.0 0.2
24/11:00am 27.0 28.4 18.6 60 5.5 NNW 9 19 5 10 1009.4 1006.4 0.2
24/10:30am 26.6 28.1 19.0 63 5.0 NNW 9 15 5 8 1009.5 1006.5 0.2
24/10:00am 24.9 26.5 19.1 70 3.8 NNW 9 19 5 10 1009.6 1006.6 0.0
24/09:30am 23.7 25.4 18.4 72 3.4 N 7 13 4 7 1009.9 1006.9 0.0
24/09:00am 21.7 23.2 18.1 80 2.3 N 7 15 4 8 1010.0 1007.0 0.2
24/08:30am 19.7 22.1 18.9 95 0.5 N 4 9 2 5 1010.0 1007.0 0.2
24/08:00am 18.4 20.4 17.8 96 0.4 N 4 7 2 4 1009.9 1006.9 0.2
24/07:30am 17.9 20.4 17.3 96 0.4 CALM 0 0 0 0 1009.9 1006.9 0.2
24/07:00am 17.2 19.4 16.6 96 0.4 CALM 0 6 0 3 1009.9 1006.9 0.2
24/06:30am 15.7 17.4 15.1 96 0.4 CALM 0 0 0 0 1009.8 1006.8 0.2
24/06:00am 15.3 16.7 14.5 95 0.5 CALM 0 0 0 0 1009.8 1006.8 0.2
24/05:30am 15.4 16.9 14.6 95 0.5 CALM 0 0 0 0 1009.8 1006.8 0.2
24/05:00am 16.4 18.2 15.6 95 0.5 CALM 0 0 0 0 1009.7 1006.7 0.2
24/04:30am 16.6 18.5 15.8 95 0.5 CALM 0 0 0 0 1009.7 1006.7 0.2
24/04:00am 16.2 17.9 15.2 94 0.6 CALM 0 0 0 0 1009.6 1006.6 0.2
24/03:30am 16.9 18.9 16.1 95 0.5 CALM 0 0 0 0 1009.8 1006.8 0.2
24/03:00am 16.7 18.7 15.9 95 0.5 CALM 0 0 0 0 1009.7 1006.7 0.2
24/02:30am 16.6 18.5 15.8 95 0.5 CALM 0 0 0 0 1009.5 1006.5 0.2
24/02:00am 16.1 17.7 14.8 92 0.8 CALM 0 0 0 0 1009.7 1006.7 0.2
24/01:30am 17.1 19.1 16.0 93 0.7 CALM 0 0 0 0 1009.8 1006.8 0.2
24/01:00am 17.6 19.7 16.3 92 0.8 CALM 0 0 0 0 1010.0 1007.0 0.2
24/12:30am 18.4 19.7 17.1 92 0.8 SSE 6 6 3 3 1010.3 1007.3 0.2
24/12:00am 18.4 19.5 16.6 89 1.1 ESE 6 7 3 4 1010.6 1007.7 0.2
 
Date/Time
EDT
Tmp

°C
App
Tmp
°C
Dew
Point
°C
Rel
Hum
%
Delta-T

°C
Wind Press
QNH
hPa
Press
MSL
hPa
Rain
since
9 am
mm
Dir
 
Spd
km/h
Gust
km/h
Spd
kts
Gust
kts
23/11:30pm 19.7 20.3 17.7 88 1.3 SSW 11 17 6 9 1010.7 1007.8 0.2
23/11:00pm 18.1 20.5 17.0 93 0.7 CALM 0 0 0 0 1010.8 1007.9 0.2
23/10:30pm 18.0 20.3 16.7 92 0.8 CALM 0 0 0 0 1010.2 1007.2 0.2
23/10:00pm 18.5 20.9 17.0 91 0.9 CALM 0 0 0 0 1010.1 1007.1 0.2
23/09:30pm 19.3 22.0 17.8 91 0.9 CALM 0 0 0 0 1010.0 1007.0 0.2

Latest Capital City Observations: Canberra | Sydney | Melbourne | Brisbane | Adelaide | Perth | Hobart | Darwin

Other Formats:

Comma delimited format used in spreadsheet applications
http://www.bom.gov.au/fwo/IDN60903/IDN60903.94927.axf

JavaScript Object Notation format (JSON) in row-major order
http://www.bom.gov.au/fwo/IDN60903/IDN60903.94927.json